createdAt,value
2024-05-09T00:04:06.495Z,33.8
2024-05-09T00:09:28.643Z,33.8
2024-05-09T00:15:02.752Z,33.8
2024-05-09T00:20:17.378Z,33.7
2024-05-09T00:25:45.701Z,33.7
2024-05-09T00:31:23.365Z,33.7
2024-05-09T00:36:48.575Z,33.6
2024-05-09T00:42:25.534Z,33.6
2024-05-09T00:47:48.959Z,33.6
2024-05-09T00:53:23.743Z,33.6
2024-05-09T00:58:29.181Z,33.6
2024-05-09T01:04:08.446Z,33.5
2024-05-09T01:09:31.688Z,33.5
2024-05-09T01:15:07.075Z,33.5
2024-05-09T01:20:41.406Z,33.5
2024-05-09T01:26:06.680Z,33.4
2024-05-09T01:31:56.378Z,33.4
2024-05-09T01:37:35.177Z,33.4
2024-05-09T01:43:26.251Z,33.4
2024-05-09T01:48:49.042Z,33.4
2024-05-09T01:54:21.296Z,33.3
2024-05-09T01:59:43.692Z,33.3
2024-05-09T02:05:40.146Z,33.3
2024-05-09T02:16:19.375Z,33.3
2024-05-09T02:22:12.229Z,33.3
2024-05-09T02:33:12.143Z,33.2
2024-05-09T02:38:51.808Z,33.2
2024-05-09T02:44:38.044Z,33.1
2024-05-09T02:50:25.919Z,33.1
2024-05-09T02:56:06.375Z,33.1
2024-05-09T03:01:57.210Z,33.1
2024-05-09T03:07:36.919Z,33.1
2024-05-09T03:13:30.607Z,33.1
2024-05-09T03:19:09.917Z,33.1
2024-05-09T03:24:55.615Z,33
2024-05-09T03:30:25.578Z,33
2024-05-09T03:35:54.977Z,33
2024-05-09T03:41:43.156Z,32.9
2024-05-09T03:47:19.782Z,32.9
2024-05-09T03:53:11.649Z,32.9
2024-05-09T03:58:49.458Z,32.9
2024-05-09T04:04:38.229Z,32.9
2024-05-09T04:10:20.991Z,32.8
2024-05-09T04:16:06.537Z,32.8
2024-05-09T04:21:58.423Z,32.8
2024-05-09T04:27:35.644Z,32.8
2024-05-09T04:33:30.733Z,32.8
2024-05-09T04:39:12.455Z,32.8
2024-05-09T04:45:02.764Z,32.9
2024-05-09T04:50:54.347Z,32.9
2024-05-09T04:56:46.373Z,32.9
2024-05-09T05:02:34.092Z,32.9
2024-05-09T05:08:15.341Z,32.9
2024-05-09T05:14:01.957Z,32.9
2024-05-09T05:19:44.240Z,32.9
2024-05-09T05:25:17.636Z,32.9
2024-05-09T05:31:07.649Z,32.9
2024-05-09T05:36:45.441Z,32.9
2024-05-09T05:42:35.361Z,32.9
2024-05-09T05:48:13.763Z,32.9
2024-05-09T05:54:07.314Z,32.9
2024-05-09T05:59:48.244Z,32.9
2024-05-09T06:05:44.336Z,32.8
2024-05-09T06:11:30.717Z,32.8
2024-05-09T06:17:13.433Z,32.8
2024-05-09T06:22:58.853Z,32.8
2024-05-09T06:28:38.799Z,32.7
2024-05-09T06:34:29.733Z,32.7
2024-05-09T06:40:09.917Z,32.6
2024-05-09T06:45:58.123Z,32.6
2024-05-09T06:51:46.484Z,32.4
2024-05-09T06:57:23.468Z,32.3
2024-05-09T07:03:17.668Z,32.1
2024-05-09T07:08:57.600Z,32.1
2024-05-09T07:14:46.194Z,32
2024-05-09T07:20:33.579Z,32
2024-05-09T07:25:59.182Z,31.9
2024-05-09T07:31:45.643Z,31.9
2024-05-09T07:37:24.061Z,31.9
2024-05-09T07:43:15.001Z,31.9
2024-05-09T07:55:32.151Z,31.9
2024-05-09T08:01:22.333Z,30.6
2024-05-09T08:07:01.188Z,30.9
2024-05-09T08:12:53.161Z,31.1
2024-05-09T08:18:32.602Z,31.4
2024-05-09T08:24:22.595Z,31.6
2024-05-09T08:29:46.072Z,31.8
2024-05-09T08:35:39.854Z,31.8
2024-05-09T08:41:46.543Z,31.8
2024-05-09T08:47:26.856Z,31.8
2024-05-09T08:53:20.788Z,31.8
2024-05-09T08:58:57.281Z,31.7
2024-05-09T09:04:51.881Z,31.7
2024-05-09T09:10:21.152Z,31.6
2024-05-09T09:16:06.506Z,31.6
2024-05-09T09:21:58.519Z,31.6
2024-05-09T09:27:36.344Z,31.5
2024-05-09T09:33:34.089Z,31.4
2024-05-09T09:38:58.452Z,31.3
2024-05-09T09:44:51.354Z,31.3
2024-05-09T09:50:33.472Z,31.2
2024-05-09T09:55:56.963Z,31.1
2024-05-09T10:01:31.151Z,31.1
2024-05-09T10:07:10.573Z,30.9
2024-05-09T10:13:08.565Z,30.9
2024-05-09T10:18:50.773Z,30.8
2024-05-09T10:24:38.049Z,30.8
2024-05-09T10:29:59.436Z,30.8
2024-05-09T10:35:50.079Z,30.7
2024-05-09T10:41:37.324Z,31.4
2024-05-09T10:47:03.059Z,29.5
2024-05-09T10:52:53.688Z,29.6
2024-05-09T10:58:30.108Z,29.9
2024-05-09T11:04:19.554Z,30.1
2024-05-09T11:09:58.046Z,30.3
2024-05-09T11:15:39.856Z,30.4
2024-05-09T11:21:32.706Z,32.3
2024-05-09T11:27:13.408Z,33.3
2024-05-09T11:33:00.832Z,34.6
2024-05-09T11:38:41.193Z,35.7
2024-05-09T11:44:32.359Z,36.5
2024-05-09T11:50:19.091Z,37.4
2024-05-09T11:56:01.259Z,38.9
2024-05-09T12:01:36.229Z,38.6
2024-05-09T12:07:15.401Z,37.9
2024-05-09T12:13:04.662Z,37.9
2024-05-09T12:18:45.919Z,37.8
2024-05-09T12:24:38.030Z,38.8
2024-05-09T12:30:00.690Z,39.8
2024-05-09T12:35:51.337Z,39.1
2024-05-09T12:41:27.360Z,37.1
2024-05-09T12:47:15.299Z,36
2024-05-09T12:53:10.585Z,35.4
2024-05-09T12:58:58.339Z,34.2
2024-05-09T13:04:48.041Z,33.8
2024-05-09T13:10:36.459Z,33.6
2024-05-09T13:16:13.819Z,33.9
2024-05-09T13:22:04.917Z,33.8
2024-05-09T13:27:43.028Z,33.6
2024-05-09T13:33:37.508Z,33.4
2024-05-09T13:38:59.678Z,32.8
2024-05-09T13:44:31.987Z,32.3
2024-05-09T13:50:14.180Z,32.3
2024-05-09T13:55:45.488Z,32.1
2024-05-09T14:01:39.179Z,31.7
2024-05-09T14:07:03.867Z,31.4
2024-05-09T14:12:53.809Z,31.1
2024-05-09T14:18:17.329Z,30.8
2024-05-09T14:24:06.782Z,30.4
2024-05-09T14:29:48.683Z,30.1
2024-05-09T14:35:39.091Z,29.9
2024-05-09T14:41:36.861Z,29.6
2024-05-09T14:47:15.779Z,29.4
2024-05-09T14:53:07.483Z,29.1
2024-05-09T14:58:51.381Z,28.9
2024-05-09T15:04:45.931Z,28.8
2024-05-09T15:10:37.578Z,28.5
2024-05-09T15:16:17.913Z,28.2
2024-05-09T15:22:07.783Z,27.9
2024-05-09T15:27:45.663Z,27.8
2024-05-09T15:33:33.478Z,27.3
2024-05-09T15:39:11.339Z,26.9
2024-05-09T15:45:03.691Z,26.8
2024-05-09T15:50:56.635Z,26.6
2024-05-09T15:56:35.602Z,26.4
2024-05-09T16:02:27.731Z,26.4
2024-05-09T16:08:07.312Z,26.3
2024-05-09T16:13:54.156Z,26.3
2024-05-09T16:19:33.948Z,26.2
2024-05-09T16:25:27.959Z,26.2
2024-05-09T16:31:14.787Z,26.1
2024-05-09T16:36:53.448Z,26.1
2024-05-09T16:42:48.284Z,26.1
2024-05-09T16:48:27.672Z,26
2024-05-09T16:54:13.078Z,26
2024-05-09T16:59:51.222Z,26
2024-05-09T17:05:49.398Z,26
2024-05-09T17:11:49.541Z,25.9
2024-05-09T17:17:29.584Z,25.9
2024-05-09T17:23:19.161Z,25.9
2024-05-09T17:28:57.722Z,25.9
2024-05-09T17:34:46.739Z,25.9
2024-05-09T17:45:59.209Z,25.9
2024-05-09T17:51:48.607Z,25.9
2024-05-09T17:57:25.674Z,25.9
2024-05-09T18:03:25.943Z,25.9
2024-05-09T18:09:07.451Z,25.9
2024-05-09T18:14:53.684Z,25.8
2024-05-09T18:20:24.058Z,25.8
2024-05-09T18:26:12.227Z,25.8
2024-05-09T18:32:00.874Z,25.8
2024-05-09T18:37:41.333Z,25.8
2024-05-09T18:43:37.978Z,25.8
2024-05-09T18:49:20.832Z,25.8
2024-05-09T18:55:12.257Z,25.8
2024-05-09T19:01:06.880Z,25.8
2024-05-09T19:06:54.847Z,25.8
2024-05-09T19:12:38.430Z,25.8
2024-05-09T19:18:18.776Z,25.7
2024-05-09T19:24:20.214Z,25.7
2024-05-09T19:29:58.158Z,25.6
2024-05-09T19:35:49.154Z,25.6
2024-05-09T19:41:37.236Z,25.6
2024-05-09T19:47:17.934Z,25.6
2024-05-09T19:53:12.069Z,25.6
2024-05-09T19:58:53.027Z,25.5
2024-05-09T20:04:44.386Z,25.5
2024-05-09T20:10:31.322Z,25.5
2024-05-09T20:16:11.800Z,25.4
2024-05-09T20:21:50.032Z,25.4
2024-05-09T20:27:26.527Z,25.4
2024-05-09T20:33:15.307Z,25.4
2024-05-09T20:38:53.660Z,25.4
2024-05-09T20:44:41.140Z,25.4
2024-05-09T20:50:27.360Z,25.4
2024-05-09T20:56:10.846Z,25.4
2024-05-09T21:02:05.892Z,25.4
2024-05-09T21:07:47.263Z,25.4
2024-05-09T21:13:29.307Z,25.4
2024-05-09T21:19:07.118Z,25.4
2024-05-09T21:24:48.997Z,25.4
2024-05-09T21:30:38.148Z,25.4
2024-05-09T21:36:04.746Z,25.4
2024-05-09T21:41:53.979Z,25.4
2024-05-09T21:47:31.987Z,25.4
2024-05-09T21:53:21.841Z,25.4
2024-05-09T21:58:58.990Z,25.3
2024-05-09T22:04:52.333Z,25.3
2024-05-09T22:10:42.382Z,25.4
2024-05-09T22:16:24.117Z,25.3
2024-05-09T22:22:17.185Z,25.3
2024-05-09T22:27:57.185Z,25.3
2024-05-09T22:33:47.622Z,25.3
2024-05-09T22:39:26.260Z,25.3
2024-05-09T22:45:20.156Z,25.3
2024-05-09T22:51:06.605Z,25.3
2024-05-09T22:56:28.874Z,25.3
2024-05-09T23:02:16.270Z,25.3
2024-05-09T23:07:55.166Z,25.3
2024-05-09T23:13:42.251Z,25.3
2024-05-09T23:19:21.171Z,25.3
2024-05-09T23:25:08.410Z,25.3
2024-05-09T23:30:58.986Z,25.3
2024-05-09T23:36:38.574Z,25.3
2024-05-09T23:42:32.802Z,25.3
2024-05-09T23:48:13.331Z,25.3
2024-05-09T23:54:02.994Z,25.3
2024-05-09T23:59:40.252Z,25.3
